Terminal Aerodrome Forecast
Issued by NWS

Home | Current Version | Previous Version | Text Only | Print | Product List | Glossary On
Versions: 1 2 3 4 5 6 7 8 9 10 11 12 13 14
589
FTUS45 KTFX 260520
TAFBZN
TAF
KBZN 260520Z 2606/2706 15008KT P6SM BKN060
     FM262100 26010KT P6SM -SHRA VCTS SCT025 BKN050CB
     FM270200 22008KT P6SM -SHRA SCT020 BKN040=

USA.gov is the U.S. government's official web portal to all federal, state and local government web resources and services.